Weather History for KRNH - April, 2013

Change the Weather History Date:

Tuesday, April 23, 2013

  Actual Average (KMSP) Record (KMSP)
Temperature  
Mean Temperature 34 °F 51 °F  
Max Temperature 37 °F 62 °F 86 °F (1990)
Min Temperature 30 °F 41 °F 19 °F (1910)
Degree Days  
Heating Degree Days 32 14  
Month to date heating degree days 444  
Since 1 July heating degree days 7232  
Cooling Degree Days 0 0  
Month to date cooling degree days 0  
Year to date cooling degree days 0  
Moisture  
Dew Point 26 °F    
Average Humidity 76    
Maximum Humidity 100    
Minimum Humidity 45    
Precipitation  
Precipitation 0.22 in 0.10 in 0.87 in (1968)
Month to date precipitation 1.92  
Year to date precipitation 5.48  
Snow  
Snow 0.00 in 0.10 in 1.60 in (1988)
Month to date snowfall 2.1  
Since 1 July snowfall 54.1  
Snow Depth -    
Sea Level Pressure  
Sea Level Pressure 30.08 in    
Wind  
Wind Speed 12 mph (NW)    
Max Wind Speed 17 mph    
Max Gust Speed 22 mph    
Visibility 9 miles    
Events Snow    
T = Trace of Precipitation, MM = Missing Value Source: NWS Daily Summary

Daily Weather History Graph

Daily Weather History Graph

Search for Another Location

Airport or City:

Trip Planner

Search our weather history database for the weather conditions in past years. The results will help you decide how hot, cold, wet, or windy it might be!

Date:

Astronomy

Apr. 23, 2013 Rise Set
Actual Time 6:11 AM CDT 8:06 PM CDT
Civil Twilight 5:39 AM CDT 8:38 PM CDT
Nautical Twilight 5:01 AM CDT 9:16 PM CDT
Astronomical Twilight 4:18 AM CDT 9:59 PM CDT
Moon 5:57 PM CDT (4/23) 4:45 AM CDT (4/23)
Length of Visible Light 14h 58m
Length of Day
13h 55m
Waxing Gibbous, 94% of the Moon is Illuminated
Apr 23
Waxing Gibbous
Apr 25
Full
May 2
Last Quarter
May 9
New
May 17
First Quarter

Hourly Weather History & Observations

Time (CDT) Temp. Windchill Dew Point Humidity Pressure Visibility Wind Dir Wind Speed Gust Speed Precip Events Conditions
12:15 AM 32.0 °F 23.0 °F 32.0 °F 100% 30.09 in 0.8 mi NNW 11.5 mph - N/A Snow Snow
12:35 AM 32.0 °F 23.0 °F 32.0 °F 100% 30.09 in 0.8 mi NNW 11.5 mph - N/A Snow Snow
12:55 AM 32.0 °F 22.5 °F 32.0 °F 100% 30.08 in 1.2 mi NNW 12.7 mph - N/A Snow Light Snow
1:15 AM 32.0 °F 22.1 °F 32.0 °F 100% 30.07 in 2.5 mi North 13.8 mph 19.6 mph N/A Snow Light Snow
1:35 AM 32.0 °F 21.6 °F 32.0 °F 100% 30.07 in 3.0 mi NNW 15.0 mph - N/A Snow Light Snow
1:55 AM 32.0 °F 21.6 °F 32.0 °F 100% 30.07 in 4.0 mi NNW 15.0 mph - N/A Snow Light Snow
2:15 AM 32.0 °F 21.6 °F 32.0 °F 100% 30.09 in 5.0 mi NNW 15.0 mph - N/A Snow Light Snow
2:35 AM 32.0 °F 21.6 °F 32.0 °F 100% 30.09 in 4.0 mi NNW 15.0 mph - N/A Snow Light Snow
2:55 AM 32.0 °F 22.5 °F 32.0 °F 100% 30.09 in 2.5 mi NNW 12.7 mph - N/A Snow Light Snow
3:15 AM 32.0 °F 21.6 °F 32.0 °F 100% 30.07 in 2.0 mi NNW 15.0 mph - N/A Snow Light Snow
3:35 AM 32.0 °F 22.1 °F 32.0 °F 100% 30.07 in 2.5 mi NNW 13.8 mph 20.7 mph N/A Snow Light Snow
3:55 AM 32.0 °F 21.6 °F 32.0 °F 100% 30.08 in 3.0 mi NNW 15.0 mph 18.4 mph N/A Snow Light Snow
4:15 AM 32.0 °F 22.1 °F 32.0 °F 100% 30.07 in 4.0 mi NNW 13.8 mph - N/A Snow Light Snow
4:35 AM 32.0 °F 20.8 °F 30.2 °F 93% 30.07 in 7.0 mi North 17.3 mph 21.9 mph N/A Snow Light Snow
4:55 AM 32.0 °F 22.5 °F 30.2 °F 93% 30.06 in 10.0 mi North 12.7 mph - N/A   Overcast
5:15 AM 32.0 °F 22.5 °F 30.2 °F 93% 30.06 in 10.0 mi North 12.7 mph - N/A   Overcast
5:35 AM 30.2 °F 20.8 °F 30.2 °F 100% 30.07 in 10.0 mi NNW 11.5 mph - N/A   Overcast
5:55 AM 32.0 °F 24.2 °F 30.2 °F 93% 30.10 in 10.0 mi NW 9.2 mph - N/A   Overcast
6:15 AM 32.0 °F 24.2 °F 30.2 °F 93% 30.10 in 10.0 mi NW 9.2 mph - N/A   Overcast
6:35 AM 32.0 °F 23.0 °F 30.2 °F 93% 30.11 in 10.0 mi NNW 11.5 mph - N/A   Overcast
6:55 AM 32.0 °F 24.2 °F 30.2 °F 93% 30.11 in 10.0 mi NNW 9.2 mph - N/A   Overcast
7:15 AM 32.0 °F 23.0 °F 30.2 °F 93% 30.11 in 10.0 mi NNW 11.5 mph - N/A   Overcast
7:35 AM 32.0 °F 23.6 °F 30.2 °F 93% 30.11 in 10.0 mi NNW 10.4 mph - N/A   Overcast
7:55 AM 32.0 °F 23.6 °F 30.2 °F 93% 30.11 in 10.0 mi NNW 10.4 mph 16.1 mph N/A   Overcast
8:15 AM 32.0 °F 23.6 °F 30.2 °F 93% 30.12 in 10.0 mi NW 10.4 mph - N/A   Overcast
8:35 AM 32.0 °F 23.0 °F 30.2 °F 93% 30.12 in 10.0 mi NNW 11.5 mph - N/A   Overcast
8:55 AM 32.0 °F 23.0 °F 30.2 °F 93% 30.11 in 10.0 mi NNW 11.5 mph - N/A   Overcast
9:15 AM 32.0 °F 24.2 °F 28.4 °F 87% 30.12 in 10.0 mi NNW 9.2 mph - N/A   Overcast
9:35 AM 32.0 °F 24.8 °F 28.4 °F 87% 30.12 in 10.0 mi NNW 8.1 mph - N/A   Overcast
9:55 AM 32.0 °F 24.8 °F 28.4 °F 87% 30.11 in 10.0 mi NNW 8.1 mph - N/A   Mostly Cloudy
10:15 AM 32.0 °F 24.8 °F 28.4 °F 87% 30.11 in 10.0 mi NNW 8.1 mph - N/A   Scattered Clouds
10:35 AM 33.8 °F 27.0 °F 28.4 °F 81% 30.11 in 10.0 mi NW 8.1 mph - 0.05 in   Scattered Clouds
10:55 AM 33.8 °F 25.8 °F 28.4 °F 81% 30.11 in 10.0 mi NW 10.4 mph - 0.10 in   Scattered Clouds
11:15 AM 33.8 °F 26.4 °F 28.4 °F 81% 30.10 in 10.0 mi NW 9.2 mph - 0.07 in   Scattered Clouds
11:35 AM 33.8 °F 25.8 °F 28.4 °F 81% 30.10 in 10.0 mi NW 10.4 mph - 0.10 in   Scattered Clouds
11:55 AM 33.8 °F 26.4 °F 28.4 °F 81% 30.10 in 10.0 mi NW 9.2 mph - 0.12 in   Clear
12:15 PM 35.6 °F 28.0 °F 28.4 °F 75% 30.10 in 10.0 mi NW 10.4 mph - N/A   Clear
12:35 PM 35.6 °F 26.6 °F 26.6 °F 70% 30.10 in 10.0 mi NW 13.8 mph - N/A   Clear
12:55 PM 35.6 °F 26.6 °F 26.6 °F 70% 30.09 in 10.0 mi NW 13.8 mph 17.3 mph N/A   Scattered Clouds
1:15 PM 35.6 °F 26.2 °F 26.6 °F 70% 30.08 in 10.0 mi WNW 15.0 mph - N/A   Clear
1:35 PM 35.6 °F 28.0 °F 26.6 °F 70% 30.08 in 10.0 mi NW 10.4 mph 18.4 mph N/A   Clear
1:55 PM 35.6 °F 26.6 °F 26.6 °F 70% 30.07 in 10.0 mi NW 13.8 mph - N/A   Clear
2:15 PM 37.4 °F 29.3 °F 26.6 °F 65% 30.08 in 10.0 mi NW 12.7 mph - N/A   Scattered Clouds
2:35 PM 37.4 °F 29.8 °F 23.0 °F 56% 30.07 in 10.0 mi NNW 11.5 mph - N/A   Scattered Clouds
2:55 PM 37.4 °F 29.8 °F 23.0 °F 56% 30.07 in 10.0 mi WNW 11.5 mph - N/A   Scattered Clouds
3:15 PM 37.4 °F 28.9 °F 23.0 °F 56% 30.07 in 10.0 mi NW 13.8 mph 20.7 mph N/A   Scattered Clouds
3:35 PM 37.4 °F 29.8 °F 23.0 °F 56% 30.06 in 10.0 mi WNW 11.5 mph 16.1 mph N/A   Scattered Clouds
3:55 PM 37.4 °F 28.2 °F 23.0 °F 56% 30.06 in 10.0 mi WNW 16.1 mph - N/A   Mostly Cloudy
4:15 PM 37.4 °F 32.1 °F 23.0 °F 56% 30.06 in 10.0 mi NNW 6.9 mph - N/A   Scattered Clouds
4:35 PM 37.4 °F 29.8 °F 21.2 °F 52% 30.05 in 10.0 mi WNW 11.5 mph - N/A   Scattered Clouds
4:55 PM 37.4 °F 29.3 °F 23.0 °F 56% 30.05 in 10.0 mi NNW 12.7 mph 17.3 mph N/A   Scattered Clouds
5:15 PM 37.4 °F 30.8 °F 21.2 °F 52% 30.05 in 10.0 mi NW 9.2 mph - N/A   Clear
5:35 PM 37.4 °F 30.3 °F 21.2 °F 52% 30.05 in 10.0 mi NNW 10.4 mph 16.1 mph N/A   Clear
5:55 PM 37.4 °F 31.4 °F 19.4 °F 48% 30.05 in 10.0 mi NW 8.1 mph 11.5 mph N/A   Clear
6:15 PM 37.4 °F 29.3 °F 19.4 °F 48% 30.05 in 10.0 mi NNW 12.7 mph 18.4 mph N/A   Clear
6:35 PM 37.4 °F 30.3 °F 19.4 °F 48% 30.04 in 10.0 mi NNW 10.4 mph - N/A   Clear
6:55 PM 37.4 °F 30.3 °F 19.4 °F 48% 30.04 in 10.0 mi NNW 10.4 mph - N/A   Clear
7:15 PM 37.4 °F 30.8 °F 17.6 °F 45% 30.03 in 10.0 mi NNW 9.2 mph - N/A   Clear
7:35 PM 35.6 °F 28.6 °F 19.4 °F 52% 30.04 in 10.0 mi NNW 9.2 mph - N/A   Clear
7:55 PM 35.6 °F 30.7 °F 19.4 °F 52% 30.04 in 10.0 mi NW 5.8 mph - N/A   Clear
8:15 PM 33.8 °F 28.6 °F 19.4 °F 56% 30.04 in 10.0 mi NW 5.8 mph - N/A   Clear
8:35 PM 33.8 °F 28.6 °F 19.4 °F 56% 30.04 in 10.0 mi NW 5.8 mph - N/A   Clear
8:55 PM 33.8 °F 29.6 °F 17.6 °F 52% 30.05 in 10.0 mi WNW 4.6 mph - N/A   Clear
9:15 PM 32.0 °F 26.4 °F 19.4 °F 60% 30.06 in 10.0 mi West 5.8 mph - N/A   Clear
9:35 PM 32.0 °F 24.8 °F 19.4 °F 60% 30.06 in 10.0 mi West 8.1 mph - N/A   Clear
9:55 PM 32.0 °F 24.8 °F 19.4 °F 60% 30.07 in 10.0 mi West 8.1 mph - N/A   Clear
10:15 PM 32.0 °F 24.8 °F 19.4 °F 60% 30.07 in 10.0 mi WNW 8.1 mph - N/A   Clear
10:35 PM 32.0 °F 24.8 °F 19.4 °F 60% 30.07 in 10.0 mi WNW 8.1 mph - N/A   Clear
10:55 PM 30.2 °F 22.6 °F 21.2 °F 69% 30.06 in 10.0 mi WNW 8.1 mph - N/A   Clear
11:15 PM 32.0 °F 24.8 °F 21.2 °F 64% 30.06 in 10.0 mi WNW 8.1 mph - N/A   Clear
11:35 PM 30.2 °F 22.6 °F 21.2 °F 69% 30.05 in 10.0 mi WNW 8.1 mph - N/A   Clear
11:55 PM 30.2 °F 22.6 °F 21.2 °F 69% 30.05 in 10.0 mi WNW 8.1 mph - N/A   Clear